sensor_id;sensor_type;location;lat;lon;timestamp;pressure;altitude;pressure_sealevel;temperature;humidity
58991;BME280;44781;53.444;14.476;2022-11-24T00:01:52;100815.36;;;4.24;79.88
58991;BME280;44781;53.444;14.476;2022-11-24T00:04:19;100816.58;;;4.24;79.80
58991;BME280;44781;53.444;14.476;2022-11-24T00:06:47;100815.88;;;4.24;79.84
58991;BME280;44781;53.444;14.476;2022-11-24T00:09:14;100815.59;;;4.23;79.78
58991;BME280;44781;53.444;14.476;2022-11-24T00:11:44;100820.39;;;4.21;79.76
58991;BME280;44781;53.444;14.476;2022-11-24T00:14:11;100819.74;;;4.20;79.70
58991;BME280;44781;53.444;14.476;2022-11-24T00:16:39;100822.73;;;4.20;79.68
58991;BME280;44781;53.444;14.476;2022-11-24T00:19:10;100827.58;;;4.21;79.79
58991;BME280;44781;53.444;14.476;2022-11-24T00:21:37;100826.61;;;4.23;79.78
58991;BME280;44781;53.444;14.476;2022-11-24T00:24:05;100824.42;;;4.24;79.77
58991;BME280;44781;53.444;14.476;2022-11-24T00:26:34;100824.46;;;4.23;79.75
58991;BME280;44781;53.444;14.476;2022-11-24T00:29:05;100823.45;;;4.23;79.54
58991;BME280;44781;53.444;14.476;2022-11-24T00:31:38;100816.75;;;4.21;79.59
58991;BME280;44781;53.444;14.476;2022-11-24T00:34:10;100818.07;;;4.18;79.59
58991;BME280;44781;53.444;14.476;2022-11-24T00:36:39;100819.06;;;4.16;79.50
58991;BME280;44781;53.444;14.476;2022-11-24T00:39:10;100823.45;;;4.16;79.39
58991;BME280;44781;53.444;14.476;2022-11-24T00:41:39;100823.23;;;4.17;79.39
58991;BME280;44781;53.444;14.476;2022-11-24T00:44:06;100821.06;;;4.18;79.40
58991;BME280;44781;53.444;14.476;2022-11-24T00:46:34;100823.45;;;4.19;79.40
58991;BME280;44781;53.444;14.476;2022-11-24T00:49:02;100826.42;;;4.19;79.33
58991;BME280;44781;53.444;14.476;2022-11-24T00:51:30;100828.04;;;4.18;79.28
58991;BME280;44781;53.444;14.476;2022-11-24T00:53:58;100827.59;;;4.17;79.32
58991;BME280;44781;53.444;14.476;2022-11-24T00:56:27;100832.95;;;4.14;79.30
58991;BME280;44781;53.444;14.476;2022-11-24T00:58:55;100832.86;;;4.12;79.29
58991;BME280;44781;53.444;14.476;2022-11-24T01:01:25;100829.05;;;4.12;79.12
58991;BME280;44781;53.444;14.476;2022-11-24T01:03:53;100826.45;;;4.11;79.12
58991;BME280;44781;53.444;14.476;2022-11-24T01:06:24;100818.02;;;4.12;79.15
58991;BME280;44781;53.444;14.476;2022-11-24T01:08:52;100814.83;;;4.12;79.25
58991;BME280;44781;53.444;14.476;2022-11-24T01:11:23;100817.52;;;4.12;79.12
58991;BME280;44781;53.444;14.476;2022-11-24T01:13:53;100820.42;;;4.09;78.96
58991;BME280;44781;53.444;14.476;2022-11-24T01:16:30;100827.05;;;4.06;78.87
58991;BME280;44781;53.444;14.476;2022-11-24T01:18:59;100825.30;;;4.02;78.84
58991;BME280;44781;53.444;14.476;2022-11-24T01:21:26;100823.89;;;3.99;78.87
58991;BME280;44781;53.444;14.476;2022-11-24T01:23:54;100819.88;;;3.99;78.93
58991;BME280;44781;53.444;14.476;2022-11-24T01:26:22;100817.49;;;3.98;78.94
58991;BME280;44781;53.444;14.476;2022-11-24T01:28:53;100816.45;;;3.98;79.05
58991;BME280;44781;53.444;14.476;2022-11-24T01:31:21;100820.09;;;3.98;79.13
58991;BME280;44781;53.444;14.476;2022-11-24T01:33:48;100817.89;;;3.97;79.16
58991;BME280;44781;53.444;14.476;2022-11-24T01:36:16;100816.02;;;3.95;79.33
58991;BME280;44781;53.444;14.476;2022-11-24T01:38:43;100822.05;;;3.93;79.35
58991;BME280;44781;53.444;14.476;2022-11-24T01:41:13;100820.76;;;3.91;79.36
58991;BME280;44781;53.444;14.476;2022-11-24T01:43:41;100819.39;;;3.90;79.37
58991;BME280;44781;53.444;14.476;2022-11-24T01:46:45;100821.13;;;3.90;79.48
58991;BME280;44781;53.444;14.476;2022-11-24T01:52:16;100815.98;;;3.92;79.56
58991;BME280;44781;53.444;14.476;2022-11-24T01:54:48;100814.52;;;3.93;79.57
58991;BME280;44781;53.444;14.476;2022-11-24T01:57:28;100812.98;;;3.93;79.66
58991;BME280;44781;53.444;14.476;2022-11-24T02:00:05;100816.16;;;3.92;79.78
58991;BME280;44781;53.444;14.476;2022-11-24T02:02:41;100824.07;;;3.91;79.83
58991;BME280;44781;53.444;14.476;2022-11-24T02:05:22;100826.70;;;3.91;79.72
58991;BME280;44781;53.444;14.476;2022-11-24T02:07:54;100829.25;;;3.93;79.76
58991;BME280;44781;53.444;14.476;2022-11-24T02:10:23;100833.88;;;3.94;79.86
58991;BME280;44781;53.444;14.476;2022-11-24T02:12:52;100840.57;;;3.98;79.96
58991;BME280;44781;53.444;14.476;2022-11-24T02:15:21;100843.65;;;3.99;79.97
58991;BME280;44781;53.444;14.476;2022-11-24T02:17:48;100841.19;;;3.99;79.93
58991;BME280;44781;53.444;14.476;2022-11-24T02:20:16;100842.75;;;3.99;79.88
58991;BME280;44781;53.444;14.476;2022-11-24T02:22:54;100853.58;;;4.00;79.82
58991;BME280;44781;53.444;14.476;2022-11-24T02:27:55;100861.70;;;3.98;79.86
58991;BME280;44781;53.444;14.476;2022-11-24T02:30:22;100857.30;;;3.99;79.93
58991;BME280;44781;53.444;14.476;2022-11-24T02:32:51;100854.78;;;4.00;79.96
58991;BME280;44781;53.444;14.476;2022-11-24T02:35:18;100855.04;;;4.02;80.04
58991;BME280;44781;53.444;14.476;2022-11-24T02:37:46;100858.77;;;4.04;80.04
58991;BME280;44781;53.444;14.476;2022-11-24T02:40:15;100862.23;;;4.05;79.96
58991;BME280;44781;53.444;14.476;2022-11-24T02:42:44;100865.73;;;4.05;80.02
58991;BME280;44781;53.444;14.476;2022-11-24T02:45:13;100857.91;;;4.04;80.03
58991;BME280;44781;53.444;14.476;2022-11-24T02:47:42;100855.35;;;4.03;79.97
58991;BME280;44781;53.444;14.476;2022-11-24T02:50:10;100857.31;;;4.02;79.91
58991;BME280;44781;53.444;14.476;2022-11-24T02:52:37;100860.27;;;4.02;79.95
58991;BME280;44781;53.444;14.476;2022-11-24T02:55:04;100854.28;;;4.03;79.90
58991;BME280;44781;53.444;14.476;2022-11-24T02:57:31;100856.85;;;4.04;79.87
58991;BME280;44781;53.444;14.476;2022-11-24T02:59:59;100856.81;;;4.05;79.99
58991;BME280;44781;53.444;14.476;2022-11-24T03:02:26;100859.21;;;4.06;79.95
58991;BME280;44781;53.444;14.476;2022-11-24T03:04:53;100853.57;;;4.04;79.90
58991;BME280;44781;53.444;14.476;2022-11-24T03:07:20;100854.07;;;4.04;79.89
58991;BME280;44781;53.444;14.476;2022-11-24T03:09:50;100852.73;;;4.03;79.85
58991;BME280;44781;53.444;14.476;2022-11-24T03:12:17;100856.98;;;4.02;79.78
58991;BME280;44781;53.444;14.476;2022-11-24T03:14:44;100854.31;;;4.02;79.78
58991;BME280;44781;53.444;14.476;2022-11-24T03:17:11;100854.80;;;4.03;79.82
58991;BME280;44781;53.444;14.476;2022-11-24T03:19:38;100854.19;;;4.05;79.71
58991;BME280;44781;53.444;14.476;2022-11-24T03:22:06;100853.28;;;4.06;79.88
58991;BME280;44781;53.444;14.476;2022-11-24T03:24:33;100851.71;;;4.06;79.79
58991;BME280;44781;53.444;14.476;2022-11-24T03:27:00;100858.04;;;4.05;79.65
58991;BME280;44781;53.444;14.476;2022-11-24T03:29:27;100857.42;;;4.04;79.73
58991;BME280;44781;53.444;14.476;2022-11-24T03:31:54;100861.70;;;4.02;79.62
58991;BME280;44781;53.444;14.476;2022-11-24T03:34:21;100857.77;;;4.00;79.53
58991;BME280;44781;53.444;14.476;2022-11-24T03:36:48;100856.75;;;3.99;79.53
58991;BME280;44781;53.444;14.476;2022-11-24T03:39:16;100858.83;;;3.99;79.56
58991;BME280;44781;53.444;14.476;2022-11-24T03:41:43;100862.01;;;3.99;79.45
58991;BME280;44781;53.444;14.476;2022-11-24T03:44:10;100861.84;;;3.99;79.48
58991;BME280;44781;53.444;14.476;2022-11-24T03:46:37;100859.23;;;3.98;79.52
58991;BME280;44781;53.444;14.476;2022-11-24T03:49:05;100857.55;;;3.97;79.48
58991;BME280;44781;53.444;14.476;2022-11-24T03:51:32;100854.30;;;3.95;79.47
58991;BME280;44781;53.444;14.476;2022-11-24T03:54:01;100853.00;;;3.93;79.42
58991;BME280;44781;53.444;14.476;2022-11-24T03:56:28;100856.29;;;3.90;79.28
58991;BME280;44781;53.444;14.476;2022-11-24T03:58:55;100858.98;;;3.89;79.26
58991;BME280;44781;53.444;14.476;2022-11-24T04:01:23;100858.47;;;3.88;79.35
58991;BME280;44781;53.444;14.476;2022-11-24T04:03:51;100855.44;;;3.89;79.58
58991;BME280;44781;53.444;14.476;2022-11-24T04:06:20;100862.94;;;3.90;79.65
58991;BME280;44781;53.444;14.476;2022-11-24T04:08:47;100868.88;;;3.90;79.58
58991;BME280;44781;53.444;14.476;2022-11-24T04:11:16;100873.64;;;3.89;79.61
58991;BME280;44781;53.444;14.476;2022-11-24T04:14:02;100873.56;;;3.87;79.65
58991;BME280;44781;53.444;14.476;2022-11-24T04:16:29;100873.71;;;3.84;79.57
58991;BME280;44781;53.444;14.476;2022-11-24T04:18:57;100877.23;;;3.83;79.65
58991;BME280;44781;53.444;14.476;2022-11-24T04:21:24;100882.16;;;3.83;79.70
58991;BME280;44781;53.444;14.476;2022-11-24T04:23:51;100886.20;;;3.82;79.69
58991;BME280;44781;53.444;14.476;2022-11-24T04:26:18;100887.02;;;3.83;79.82
58991;BME280;44781;53.444;14.476;2022-11-24T04:28:45;100885.73;;;3.85;79.88
58991;BME280;44781;53.444;14.476;2022-11-24T04:31:12;100885.83;;;3.86;79.94
58991;BME280;44781;53.444;14.476;2022-11-24T04:33:39;100889.66;;;3.87;79.98
58991;BME280;44781;53.444;14.476;2022-11-24T04:36:07;100888.45;;;3.86;79.90
58991;BME280;44781;53.444;14.476;2022-11-24T04:38:34;100894.10;;;3.85;79.90
58991;BME280;44781;53.444;14.476;2022-11-24T04:41:02;100897.64;;;3.84;79.94
58991;BME280;44781;53.444;14.476;2022-11-24T04:43:30;100901.77;;;3.86;80.00
58991;BME280;44781;53.444;14.476;2022-11-24T04:46:00;100905.34;;;3.88;79.95
58991;BME280;44781;53.444;14.476;2022-11-24T04:48:28;100908.88;;;3.90;80.02
58991;BME280;44781;53.444;14.476;2022-11-24T04:50:55;100906.03;;;3.92;80.01
58991;BME280;44781;53.444;14.476;2022-11-24T04:53:22;100904.82;;;3.92;80.08
58991;BME280;44781;53.444;14.476;2022-11-24T04:55:49;100908.84;;;3.91;80.12
58991;BME280;44781;53.444;14.476;2022-11-24T04:58:17;100906.95;;;3.91;80.08
58991;BME280;44781;53.444;14.476;2022-11-24T05:00:44;100913.42;;;3.90;80.13
58991;BME280;44781;53.444;14.476;2022-11-24T05:03:11;100923.98;;;3.89;80.05
58991;BME280;44781;53.444;14.476;2022-11-24T05:05:39;100927.14;;;3.89;79.88
58991;BME280;44781;53.444;14.476;2022-11-24T05:08:07;100933.89;;;3.90;80.06
58991;BME280;44781;53.444;14.476;2022-11-24T05:10:34;100942.34;;;3.93;80.00
58991;BME280;44781;53.444;14.476;2022-11-24T05:13:20;100948.92;;;3.94;80.06
58991;BME280;44781;53.444;14.476;2022-11-24T05:15:47;100952.74;;;3.95;79.92
58991;BME280;44781;53.444;14.476;2022-11-24T05:18:14;100944.90;;;3.94;79.98
58991;BME280;44781;53.444;14.476;2022-11-24T05:20:43;100938.14;;;3.93;80.04
58991;BME280;44781;53.444;14.476;2022-11-24T05:23:11;100939.66;;;3.90;79.96
58991;BME280;44781;53.444;14.476;2022-11-24T05:25:38;100940.09;;;3.88;79.89
58991;BME280;44781;53.444;14.476;2022-11-24T05:28:06;100943.91;;;3.89;79.86
58991;BME280;44781;53.444;14.476;2022-11-24T05:30:38;100941.16;;;3.88;79.85
58991;BME280;44781;53.444;14.476;2022-11-24T05:33:08;100942.67;;;3.89;79.94
58991;BME280;44781;53.444;14.476;2022-11-24T05:35:37;100936.27;;;3.88;79.97
58991;BME280;44781;53.444;14.476;2022-11-24T05:38:04;100937.54;;;3.87;79.96
58991;BME280;44781;53.444;14.476;2022-11-24T05:40:32;100941.90;;;3.87;80.01
58991;BME280;44781;53.444;14.476;2022-11-24T05:43:12;100943.19;;;3.86;80.07
58991;BME280;44781;53.444;14.476;2022-11-24T05:45:39;100948.13;;;3.85;79.93
58991;BME280;44781;53.444;14.476;2022-11-24T05:48:09;100949.92;;;3.83;79.92
58991;BME280;44781;53.444;14.476;2022-11-24T05:50:41;100954.27;;;3.84;80.02
58991;BME280;44781;53.444;14.476;2022-11-24T05:53:11;100956.30;;;3.85;80.12
58991;BME280;44781;53.444;14.476;2022-11-24T05:55:39;100954.49;;;3.87;80.18
58991;BME280;44781;53.444;14.476;2022-11-24T05:58:07;100957.21;;;3.89;80.16
58991;BME280;44781;53.444;14.476;2022-11-24T06:00:37;100964.89;;;3.89;80.14
58991;BME280;44781;53.444;14.476;2022-11-24T06:03:04;100972.27;;;3.88;80.19
58991;BME280;44781;53.444;14.476;2022-11-24T06:05:34;100975.83;;;3.87;80.20
58991;BME280;44781;53.444;14.476;2022-11-24T06:08:02;100980.98;;;3.85;80.24
58991;BME280;44781;53.444;14.476;2022-11-24T06:10:37;100980.48;;;3.84;80.12
58991;BME280;44781;53.444;14.476;2022-11-24T06:13:05;100984.30;;;3.85;80.03
58991;BME280;44781;53.444;14.476;2022-11-24T06:15:33;100988.46;;;3.86;80.07
58991;BME280;44781;53.444;14.476;2022-11-24T06:18:02;100990.08;;;3.88;80.24
58991;BME280;44781;53.444;14.476;2022-11-24T06:20:30;100993.04;;;3.89;80.27
58991;BME280;44781;53.444;14.476;2022-11-24T06:22:57;100994.05;;;3.89;80.22
58991;BME280;44781;53.444;14.476;2022-11-24T06:25:25;100991.59;;;3.90;80.21
58991;BME280;44781;53.444;14.476;2022-11-24T06:27:52;100992.89;;;3.88;80.17
58991;BME280;44781;53.444;14.476;2022-11-24T06:30:19;100997.77;;;3.84;80.05
58991;BME280;44781;53.444;14.476;2022-11-24T06:32:47;100994.85;;;3.83;80.05
58991;BME280;44781;53.444;14.476;2022-11-24T06:35:18;100992.05;;;3.83;80.07
58991;BME280;44781;53.444;14.476;2022-11-24T06:37:46;100996.38;;;3.84;80.08
58991;BME280;44781;53.444;14.476;2022-11-24T06:40:13;100999.87;;;3.84;80.11
58991;BME280;44781;53.444;14.476;2022-11-24T06:42:49;101001.80;;;3.84;80.25
58991;BME280;44781;53.444;14.476;2022-11-24T06:45:17;101003.21;;;3.83;80.09
58991;BME280;44781;53.444;14.476;2022-11-24T06:47:44;101001.05;;;3.81;80.01
58991;BME280;44781;53.444;14.476;2022-11-24T06:50:11;101008.22;;;3.78;80.02
58991;BME280;44781;53.444;14.476;2022-11-24T06:52:38;101010.45;;;3.70;80.00
58991;BME280;44781;53.444;14.476;2022-11-24T06:55:06;101011.63;;;3.68;80.12
58991;BME280;44781;53.444;14.476;2022-11-24T06:57:33;101010.05;;;3.68;80.15
58991;BME280;44781;53.444;14.476;2022-11-24T07:00:04;101010.58;;;3.67;80.35
58991;BME280;44781;53.444;14.476;2022-11-24T07:02:31;101010.76;;;3.67;80.44
58991;BME280;44781;53.444;14.476;2022-11-24T07:05:01;101010.63;;;3.66;80.56
58991;BME280;44781;53.444;14.476;2022-11-24T07:07:28;101020.76;;;3.66;80.55
58991;BME280;44781;53.444;14.476;2022-11-24T07:09:55;101026.56;;;3.65;80.58
58991;BME280;44781;53.444;14.476;2022-11-24T07:12:23;101022.42;;;3.64;80.70
58991;BME280;44781;53.444;14.476;2022-11-24T07:14:50;101022.65;;;3.63;80.68
58991;BME280;44781;53.444;14.476;2022-11-24T07:17:17;101022.98;;;3.63;80.79
58991;BME280;44781;53.444;14.476;2022-11-24T07:19:44;101026.58;;;3.65;80.88
58991;BME280;44781;53.444;14.476;2022-11-24T07:22:11;101025.27;;;3.66;80.97
58991;BME280;44781;53.444;14.476;2022-11-24T07:24:39;101028.72;;;3.68;81.05
58991;BME280;44781;53.444;14.476;2022-11-24T07:27:07;101030.61;;;3.69;81.05
58991;BME280;44781;53.444;14.476;2022-11-24T07:29:34;101036.16;;;3.69;81.03
58991;BME280;44781;53.444;14.476;2022-11-24T07:32:01;101034.63;;;3.69;80.97
58991;BME280;44781;53.444;14.476;2022-11-24T07:34:28;101036.77;;;3.68;80.90
58991;BME280;44781;53.444;14.476;2022-11-24T07:36:59;101045.29;;;3.69;81.05
58991;BME280;44781;53.444;14.476;2022-11-24T07:39:26;101041.73;;;3.70;81.13
58991;BME280;44781;53.444;14.476;2022-11-24T07:41:53;101040.43;;;3.72;81.20
58991;BME280;44781;53.444;14.476;2022-11-24T07:44:21;101044.40;;;3.73;81.19
58991;BME280;44781;53.444;14.476;2022-11-24T07:46:50;101044.38;;;3.73;81.21
58991;BME280;44781;53.444;14.476;2022-11-24T07:49:18;101049.25;;;3.73;81.29
58991;BME280;44781;53.444;14.476;2022-11-24T07:51:45;101054.38;;;3.73;81.25
58991;BME280;44781;53.444;14.476;2022-11-24T07:54:13;101058.08;;;3.72;81.14
58991;BME280;44781;53.444;14.476;2022-11-24T07:56:40;101061.00;;;3.73;81.13
58991;BME280;44781;53.444;14.476;2022-11-24T07:59:08;101068.11;;;3.74;81.12
58991;BME280;44781;53.444;14.476;2022-11-24T08:01:35;101075.33;;;3.77;81.16
58991;BME280;44781;53.444;14.476;2022-11-24T08:04:03;101077.23;;;3.78;81.18
58991;BME280;44781;53.444;14.476;2022-11-24T08:06:31;101079.81;;;3.79;81.22
58991;BME280;44781;53.444;14.476;2022-11-24T08:08:58;101078.99;;;3.77;81.22
58991;BME280;44781;53.444;14.476;2022-11-24T08:11:26;101082.93;;;3.75;81.08
58991;BME280;44781;53.444;14.476;2022-11-24T08:13:54;101087.18;;;3.74;80.95
58991;BME280;44781;53.444;14.476;2022-11-24T08:16:21;101088.25;;;3.73;81.01
58991;BME280;44781;53.444;14.476;2022-11-24T08:18:50;101090.85;;;3.74;81.17
58991;BME280;44781;53.444;14.476;2022-11-24T08:21:19;101095.34;;;3.75;81.25
58991;BME280;44781;53.444;14.476;2022-11-24T08:23:46;101097.75;;;3.76;81.24
58991;BME280;44781;53.444;14.476;2022-11-24T08:26:15;101099.52;;;3.76;81.20
58991;BME280;44781;53.444;14.476;2022-11-24T08:28:45;101101.30;;;3.75;81.18
58991;BME280;44781;53.444;14.476;2022-11-24T08:31:15;101101.05;;;3.72;81.03
58991;BME280;44781;53.444;14.476;2022-11-24T08:33:44;101096.11;;;3.65;81.09
58991;BME280;44781;53.444;14.476;2022-11-24T08:36:16;101109.64;;;3.71;81.10
58991;BME280;44781;53.444;14.476;2022-11-24T08:38:44;101107.14;;;3.73;81.10
58991;BME280;44781;53.444;14.476;2022-11-24T08:41:13;101105.17;;;3.74;81.22
58991;BME280;44781;53.444;14.476;2022-11-24T08:43:41;101103.92;;;3.75;81.30
58991;BME280;44781;53.444;14.476;2022-11-24T08:46:11;101100.58;;;3.75;81.29
58991;BME280;44781;53.444;14.476;2022-11-24T08:48:39;101097.98;;;3.75;81.28
58991;BME280;44781;53.444;14.476;2022-11-24T08:51:12;101099.21;;;3.74;81.38
58991;BME280;44781;53.444;14.476;2022-11-24T08:53:42;101099.41;;;3.74;81.44
58991;BME280;44781;53.444;14.476;2022-11-24T08:56:10;101102.34;;;3.75;81.34
58991;BME280;44781;53.444;14.476;2022-11-24T08:58:39;101102.94;;;3.77;81.35
58991;BME280;44781;53.444;14.476;2022-11-24T09:01:15;101102.00;;;3.79;81.48
58991;BME280;44781;53.444;14.476;2022-11-24T09:03:45;101104.13;;;3.82;81.58
58991;BME280;44781;53.444;14.476;2022-11-24T09:06:13;101108.96;;;3.83;81.64
58991;BME280;44781;53.444;14.476;2022-11-24T09:08:41;101110.19;;;3.83;81.59
58991;BME280;44781;53.444;14.476;2022-11-24T09:11:10;101109.88;;;3.82;81.61
58991;BME280;44781;53.444;14.476;2022-11-24T09:13:39;101113.17;;;3.83;81.60
58991;BME280;44781;53.444;14.476;2022-11-24T09:16:09;101118.35;;;3.85;81.60
58991;BME280;44781;53.444;14.476;2022-11-24T09:18:37;101119.30;;;3.87;81.59
58991;BME280;44781;53.444;14.476;2022-11-24T09:21:11;101118.67;;;3.89;81.57
58991;BME280;44781;53.444;14.476;2022-11-24T09:23:42;101119.10;;;3.92;81.64
58991;BME280;44781;53.444;14.476;2022-11-24T09:26:15;101119.61;;;3.92;81.47
58991;BME280;44781;53.444;14.476;2022-11-24T09:28:46;101121.00;;;3.92;81.67
58991;BME280;44781;53.444;14.476;2022-11-24T09:31:16;101123.13;;;3.92;81.71
58991;BME280;44781;53.444;14.476;2022-11-24T09:33:44;101128.33;;;3.92;81.70
58991;BME280;44781;53.444;14.476;2022-11-24T09:43:37;101125.16;;;4.02;81.77
58991;BME280;44781;53.444;14.476;2022-11-24T09:48:42;101123.20;;;3.98;81.43
58991;BME280;44781;53.444;14.476;2022-11-24T09:51:13;101124.55;;;3.95;81.41
58991;BME280;44781;53.444;14.476;2022-11-24T09:54:09;101125.06;;;3.91;81.21
58991;BME280;44781;53.444;14.476;2022-11-24T09:56:47;101129.24;;;3.88;81.16
58991;BME280;44781;53.444;14.476;2022-11-24T09:59:19;101137.80;;;3.88;81.24
58991;BME280;44781;53.444;14.476;2022-11-24T10:01:48;101136.17;;;3.89;81.33
58991;BME280;44781;53.444;14.476;2022-11-24T10:04:27;101132.23;;;3.91;81.55
58991;BME280;44781;53.444;14.476;2022-11-24T10:07:11;101138.45;;;3.93;81.45
58991;BME280;44781;53.444;14.476;2022-11-24T10:10:04;101135.98;;;3.94;81.51
58991;BME280;44781;53.444;14.476;2022-11-24T10:28:55;101155.08;;;3.97;81.52
58991;BME280;44781;53.444;14.476;2022-11-24T10:34:26;101151.76;;;3.97;81.42
58991;BME280;44781;53.444;14.476;2022-11-24T10:39:23;101152.74;;;3.94;81.30
58991;BME280;44781;53.444;14.476;2022-11-24T10:42:25;101151.15;;;3.94;81.30
58991;BME280;44781;53.444;14.476;2022-11-24T10:45:14;101143.23;;;3.95;81.22
58991;BME280;44781;53.444;14.476;2022-11-24T10:47:45;101140.79;;;3.96;81.30
58991;BME280;44781;53.444;14.476;2022-11-24T10:50:23;101143.77;;;4.00;81.35
58991;BME280;44781;53.444;14.476;2022-11-24T11:00:58;101150.99;;;3.98;81.37
58991;BME280;44781;53.444;14.476;2022-11-24T11:03:28;101152.35;;;3.99;81.36
58991;BME280;44781;53.444;14.476;2022-11-24T11:06:11;101152.61;;;4.02;81.41
58991;BME280;44781;53.444;14.476;2022-11-24T11:08:39;101151.61;;;4.04;81.53
58991;BME280;44781;53.444;14.476;2022-11-24T11:13:57;101158.98;;;4.08;81.41
58991;BME280;44781;53.444;14.476;2022-11-24T11:18:55;101160.02;;;4.08;81.31
58991;BME280;44781;53.444;14.476;2022-11-24T11:21:38;101159.95;;;4.06;81.24
58991;BME280;44781;53.444;14.476;2022-11-24T11:24:16;101155.80;;;4.05;81.24
58991;BME280;44781;53.444;14.476;2022-11-24T11:26:44;101154.88;;;4.06;81.18
58991;BME280;44781;53.444;14.476;2022-11-24T11:29:16;101150.65;;;4.06;81.14
58991;BME280;44781;53.444;14.476;2022-11-24T11:32:03;101155.70;;;4.07;81.23
58991;BME280;44781;53.444;14.476;2022-11-24T11:34:42;101154.08;;;4.08;81.14
58991;BME280;44781;53.444;14.476;2022-11-24T11:37:11;101150.56;;;4.08;81.22
58991;BME280;44781;53.444;14.476;2022-11-24T11:39:43;101147.95;;;4.08;81.34
58991;BME280;44781;53.444;14.476;2022-11-24T11:44:46;101148.91;;;4.07;81.42
58991;BME280;44781;53.444;14.476;2022-11-24T11:47:26;101147.42;;;4.09;81.44
58991;BME280;44781;53.444;14.476;2022-11-24T11:49:56;101146.60;;;4.11;81.62
58991;BME280;44781;53.444;14.476;2022-11-24T11:55:42;101149.19;;;4.16;81.67
58991;BME280;44781;53.444;14.476;2022-11-24T12:09:54;101157.96;;;4.15;81.47
58991;BME280;44781;53.444;14.476;2022-11-24T12:18:27;101167.15;;;4.21;81.51
58991;BME280;44781;53.444;14.476;2022-11-24T12:21:17;101162.95;;;4.22;81.46
58991;BME280;44781;53.444;14.476;2022-11-24T12:26:38;101162.67;;;4.20;81.46
58991;BME280;44781;53.444;14.476;2022-11-24T12:40:20;101162.57;;;4.22;81.41
58991;BME280;44781;53.444;14.476;2022-11-24T12:46:20;101172.50;;;4.23;81.61
58991;BME280;44781;53.444;14.476;2022-11-24T12:48:29;101172.66;;;4.23;81.62
58991;BME280;44781;53.444;14.476;2022-11-24T12:51:03;101167.85;;;4.25;81.66
58991;BME280;44781;53.444;14.476;2022-11-24T12:53:32;101167.96;;;4.27;81.59
58991;BME280;44781;53.444;14.476;2022-11-24T12:56:08;101175.09;;;4.28;81.57
58991;BME280;44781;53.444;14.476;2022-11-24T12:59:03;101177.45;;;4.30;81.71
58991;BME280;44781;53.444;14.476;2022-11-24T13:01:52;101176.05;;;4.30;81.62
58991;BME280;44781;53.444;14.476;2022-11-24T13:04:41;101176.58;;;4.30;81.69
58991;BME280;44781;53.444;14.476;2022-11-24T13:07:16;101176.44;;;4.29;81.62
58991;BME280;44781;53.444;14.476;2022-11-24T13:13:03;101184.11;;;4.30;81.53
58991;BME280;44781;53.444;14.476;2022-11-24T13:21:44;101193.39;;;4.33;81.73
58991;BME280;44781;53.444;14.476;2022-11-24T13:24:24;101198.47;;;4.33;81.66
58991;BME280;44781;53.444;14.476;2022-11-24T13:39:52;101212.42;;;4.34;81.72
58991;BME280;44781;53.444;14.476;2022-11-24T13:42:21;101217.85;;;4.34;81.70
58991;BME280;44781;53.444;14.476;2022-11-24T13:45:02;101217.00;;;4.33;81.76
58991;BME280;44781;53.444;14.476;2022-11-24T13:47:37;101214.80;;;4.31;81.75
58991;BME280;44781;53.444;14.476;2022-11-24T13:52:41;101220.61;;;4.31;81.68
58991;BME280;44781;53.444;14.476;2022-11-24T14:00:29;101237.31;;;4.38;81.97
58991;BME280;44781;53.444;14.476;2022-11-24T14:03:20;101239.88;;;4.39;81.96
58991;BME280;44781;53.444;14.476;2022-11-24T14:05:51;101245.02;;;4.37;81.86
58991;BME280;44781;53.444;14.476;2022-11-24T14:08:24;101242.99;;;4.35;81.84
58991;BME280;44781;53.444;14.476;2022-11-24T14:10:53;101243.23;;;4.34;81.74
58991;BME280;44781;53.444;14.476;2022-11-24T14:18:37;101238.46;;;4.35;81.91
58991;BME280;44781;53.444;14.476;2022-11-24T14:24:19;101239.31;;;4.35;81.93
58991;BME280;44781;53.444;14.476;2022-11-24T14:26:49;101239.76;;;4.33;81.88
58991;BME280;44781;53.444;14.476;2022-11-24T14:29:20;101242.63;;;4.32;81.71
58991;BME280;44781;53.444;14.476;2022-11-24T14:31:56;101248.80;;;4.30;81.76
58991;BME280;44781;53.444;14.476;2022-11-24T14:34:26;101262.23;;;4.31;81.69
58991;BME280;44781;53.444;14.476;2022-11-24T14:36:54;101266.73;;;4.32;81.90
58991;BME280;44781;53.444;14.476;2022-11-24T14:39:24;101275.43;;;4.34;81.85
58991;BME280;44781;53.444;14.476;2022-11-24T14:42:02;101279.94;;;4.34;81.94
58991;BME280;44781;53.444;14.476;2022-11-24T14:44:53;101278.37;;;4.34;81.95
58991;BME280;44781;53.444;14.476;2022-11-24T14:47:24;101280.86;;;4.33;81.95
58991;BME280;44781;53.444;14.476;2022-11-24T14:49:53;101286.02;;;4.31;81.88
58991;BME280;44781;53.444;14.476;2022-11-24T14:52:24;101285.95;;;4.28;81.94
58991;BME280;44781;53.444;14.476;2022-11-24T14:54:55;101294.95;;;4.30;81.80
58991;BME280;44781;53.444;14.476;2022-11-24T14:57:33;101294.23;;;4.31;81.85
58991;BME280;44781;53.444;14.476;2022-11-24T15:02:49;101299.02;;;4.34;81.99
58991;BME280;44781;53.444;14.476;2022-11-24T15:05:20;101299.00;;;4.34;81.89
58991;BME280;44781;53.444;14.476;2022-11-24T15:07:50;101299.94;;;4.33;82.02
58991;BME280;44781;53.444;14.476;2022-11-24T15:10:35;101306.32;;;4.31;81.83
58991;BME280;44781;53.444;14.476;2022-11-24T15:13:12;101312.31;;;4.30;81.81
58991;BME280;44781;53.444;14.476;2022-11-24T15:15:47;101308.80;;;4.30;81.91
58991;BME280;44781;53.444;14.476;2022-11-24T15:18:40;101307.34;;;4.31;81.92
58991;BME280;44781;53.444;14.476;2022-11-24T15:21:11;101309.20;;;4.33;81.97